Time;durP1;ratioP1;P1;durP2;ratioP2;P2;SDS_P1;SDS_P2;PMS_P1;PMS_P2;Temp;Humidity;BMP_temperature;BMP_pressure;BME280_temperature;BME280_humidity;BME280_pressure;Samples;Min_cycle;Max_cycle;Signal;HPM_P1;HPM_P2
2023/12/24 00:01:13;;;;;;;0.30;0.10;;;9.70;1.00;;;;;;5110696;28;20430;-58
2023/12/24 00:03:41;;;;;;;0.30;0.10;;;9.60;99.90;;;;;;5109642;28;21072;-60
2023/12/24 00:06:08;;;;;;;0.40;0.10;;;9.60;1.00;;;;;;5111204;28;20767;-60
2023/12/24 00:08:36;;;;;;;0.30;0.10;;;9.60;99.90;;;;;;5110026;28;20428;-61
2023/12/24 00:11:03;;;;;;;0.30;0.10;;;9.60;99.90;;;;;;5110823;28;20438;-60
2023/12/24 00:13:31;;;;;;;0.30;0.10;;;9.60;1.00;;;;;;5109272;28;20428;-59
2023/12/24 00:15:58;;;;;;;0.40;0.10;;;9.70;99.90;;;;;;5101469;28;20444;-60
2023/12/24 00:18:27;;;;;;;0.30;0.10;;;9.60;10.20;;;;;;5101705;28;21056;-60
2023/12/24 00:20:54;;;;;;;0.40;0.10;;;9.50;1.00;;;;;;5096284;28;20412;-59
2023/12/24 00:23:21;;;;;;;0.30;0.10;;;9.50;99.90;;;;;;5102575;28;20422;-59
2023/12/24 00:25:48;;;;;;;0.32;0.10;;;9.50;99.90;;;;;;5092814;28;20430;-60
2023/12/24 00:28:15;;;;;;;0.40;0.10;;;9.50;99.90;;;;;;5094408;28;20514;-60
2023/12/24 00:30:42;;;;;;;0.70;0.10;;;9.40;1.00;;;;;;5103234;28;20763;-60
2023/12/24 00:33:10;;;;;;;0.32;0.10;;;9.40;99.90;;;;;;5108311;28;20742;-59
2023/12/24 00:35:38;;;;;;;0.30;0.10;;;9.40;99.90;;;;;;5106901;28;20418;-61
2023/12/24 00:38:06;;;;;;;0.40;0.10;;;9.40;99.90;;;;;;5105936;28;20416;-61
2023/12/24 00:40:34;;;;;;;0.30;0.10;;;9.50;99.90;;;;;;5099482;28;20428;-59
2023/12/24 00:43:02;;;;;;;0.30;0.10;;;9.50;5.80;;;;;;5096054;28;20504;-60
2023/12/24 00:45:29;;;;;;;0.60;0.10;;;9.60;99.90;;;;;;5096429;28;20583;-60
2023/12/24 00:47:56;;;;;;;0.30;0.10;;;9.60;99.90;;;;;;5096501;28;20426;-60
2023/12/24 00:50:24;;;;;;;0.30;0.10;;;9.70;1.00;;;;;;5096059;28;20437;-60
2023/12/24 00:52:52;;;;;;;0.40;0.10;;;9.70;1.00;;;;;;5096705;28;20510;-60
2023/12/24 00:55:20;;;;;;;0.30;0.10;;;9.60;99.90;;;;;;5096679;28;20418;-61
2023/12/24 00:57:47;;;;;;;0.40;0.10;;;9.50;99.90;;;;;;5096294;28;20436;-60
2023/12/24 01:00:15;;;;;;;0.30;0.10;;;9.60;1.00;;;;;;5097662;28;20428;-61
2023/12/24 01:02:42;;;;;;;0.70;0.10;;;9.60;1.00;;;;;;5096552;28;20877;-59
2023/12/24 01:05:09;;;;;;;0.30;0.10;;;9.60;1.00;;;;;;5097200;28;20417;-60
2023/12/24 01:07:36;;;;;;;0.30;0.10;;;9.60;1.00;;;;;;5095368;28;20853;-61
2023/12/24 01:10:06;;;;;;;0.30;0.10;;;9.60;1.00;;;;;;5072922;28;20439;-60
2023/12/24 01:12:33;;;;;;;0.40;0.10;;;9.50;1.00;;;;;;5076591;28;20427;-60
2023/12/24 01:15:00;;;;;;;0.70;0.10;;;9.50;95.00;;;;;;5076702;28;20458;-60
2023/12/24 01:17:27;;;;;;;0.30;0.10;;;9.60;99.90;;;;;;5077064;28;20422;-60
2023/12/24 01:19:56;;;;;;;0.30;0.10;;;9.50;99.90;;;;;;5096451;28;20426;-59
2023/12/24 01:22:23;;;;;;;0.40;0.10;;;9.50;1.00;;;;;;5096371;28;20434;-61
2023/12/24 01:24:51;;;;;;;0.30;0.10;;;9.40;1.00;;;;;;5096942;28;20426;-59
2023/12/24 01:27:19;;;;;;;0.30;0.10;;;9.50;99.90;;;;;;5096717;28;20486;-59
2023/12/24 01:29:46;;;;;;;0.30;0.10;;;9.50;1.00;;;;;;5096131;28;20725;-58
2023/12/24 01:32:14;;;;;;;0.30;0.10;;;9.50;1.00;;;;;;5096691;28;20448;-59
2023/12/24 01:34:41;;;;;;;0.40;0.10;;;9.50;1.00;;;;;;5096655;28;20422;-61
2023/12/24 01:37:08;;;;;;;0.40;0.13;;;9.60;39.90;;;;;;5096475;28;20892;-60
2023/12/24 01:39:35;;;;;;;0.30;0.10;;;9.60;99.90;;;;;;5089424;28;20428;-61
2023/12/24 01:42:02;;;;;;;0.30;0.10;;;9.70;1.00;;;;;;5094602;28;20422;-60
2023/12/24 01:44:30;;;;;;;0.30;0.10;;;9.70;1.00;;;;;;5095155;28;20418;-60
2023/12/24 01:46:58;;;;;;;0.30;0.10;;;9.70;99.90;;;;;;5096191;28;20841;-60
2023/12/24 01:49:26;;;;;;;0.30;0.10;;;9.70;99.90;;;;;;5095682;28;20434;-61
2023/12/24 01:51:53;;;;;;;0.30;0.10;;;9.80;99.90;;;;;;5094094;28;20460;-61
2023/12/24 01:54:21;;;;;;;0.30;0.10;;;9.80;99.90;;;;;;5095926;28;20429;-61
2023/12/24 01:56:48;;;;;;;0.40;0.20;;;9.80;1.00;;;;;;5094866;28;20429;-62
2023/12/24 01:59:16;;;;;;;0.30;0.10;;;9.70;1.00;;;;;;5095875;28;20417;-61
2023/12/24 02:01:47;;;;;;;0.40;0.20;;;9.70;1.00;;;;;;5095037;28;20414;-61
2023/12/24 02:04:16;;;;;;;0.30;0.10;;;9.60;1.00;;;;;;5095198;28;20506;-59
2023/12/24 02:06:43;;;;;;;0.30;0.10;;;9.60;1.00;;;;;;5094802;28;20848;-60
2023/12/24 02:09:10;;;;;;;0.35;0.20;;;9.60;1.00;;;;;;5088017;28;20465;-59
2023/12/24 02:11:37;;;;;;;0.32;0.10;;;9.60;99.90;;;;;;5095471;28;20410;-61
2023/12/24 02:14:04;;;;;;;0.30;0.10;;;9.60;1.00;;;;;;5094897;28;20856;-61
2023/12/24 02:16:35;;;;;;;0.40;0.20;;;9.60;99.90;;;;;;5127720;27;20462;-60
2023/12/24 02:19:04;;;;;;;0.30;0.10;;;9.60;1.00;;;;;;5137170;27;20415;-60
2023/12/24 02:21:32;;;;;;;0.40;0.20;;;9.50;1.00;;;;;;5136566;27;20729;-60
2023/12/24 02:23:59;;;;;;;0.30;0.10;;;9.70;1.00;;;;;;5131786;27;20437;-61
2023/12/24 02:26:31;;;;;;;0.30;0.10;;;9.70;1.00;;;;;;5124074;27;20414;-59
2023/12/24 02:29:06;;;;;;;0.30;0.20;;;9.70;1.00;;;;;;5136348;27;20472;-61
2023/12/24 02:31:35;;;;;;;0.30;0.10;;;9.60;99.90;;;;;;5136002;27;20853;-61
2023/12/24 02:34:03;;;;;;;0.68;0.20;;;9.50;1.00;;;;;;5119887;27;20425;-63
2023/12/24 02:36:33;;;;;;;0.30;0.10;;;9.60;1.00;;;;;;5136055;27;20419;-59
2023/12/24 02:39:00;;;;;;;0.40;0.10;;;9.50;99.90;;;;;;5135911;27;21016;-60
2023/12/24 02:41:28;;;;;;;0.30;0.10;;;9.50;1.00;;;;;;5135920;27;20721;-60
2023/12/24 02:43:55;;;;;;;0.40;0.10;;;9.50;99.90;;;;;;5134093;27;20850;-60
2023/12/24 02:46:22;;;;;;;0.30;0.10;;;9.60;99.90;;;;;;5134684;27;20421;-61
2023/12/24 02:48:49;;;;;;;0.40;0.20;;;9.50;1.00;;;;;;5135498;27;20430;-61
2023/12/24 02:51:16;;;;;;;0.60;0.20;;;9.50;1.00;;;;;;5135262;27;20430;-61
2023/12/24 02:53:45;;;;;;;0.30;0.10;;;9.50;99.90;;;;;;5135066;27;20424;-61
2023/12/24 02:56:12;;;;;;;0.30;0.10;;;9.60;99.90;;;;;;5135581;27;20829;-62
2023/12/24 02:58:39;;;;;;;0.50;0.17;;;9.50;1.00;;;;;;5135091;27;20414;-60
2023/12/24 03:01:06;;;;;;;0.30;0.10;;;9.50;1.00;;;;;;5134639;27;20422;-61
2023/12/24 03:03:33;;;;;;;0.40;0.10;;;9.50;1.00;;;;;;5120834;27;20452;-59
2023/12/24 03:06:00;;;;;;;0.40;0.10;;;9.50;1.00;;;;;;5131970;27;20747;-58
2023/12/24 03:08:27;;;;;;;0.30;0.10;;;9.50;1.00;;;;;;5133952;27;20419;-58
2023/12/24 03:10:56;;;;;;;0.40;0.10;;;9.60;99.90;;;;;;5135202;27;20441;-58
2023/12/24 03:13:24;;;;;;;0.30;0.10;;;9.50;1.00;;;;;;5135147;27;20430;-58
2023/12/24 03:15:51;;;;;;;0.40;0.20;;;9.50;99.90;;;;;;5131489;27;21182;-58
2023/12/24 03:18:18;;;;;;;0.37;0.10;;;9.60;99.90;;;;;;5133733;27;20427;-58
2023/12/24 03:20:45;;;;;;;0.30;0.10;;;9.70;1.00;;;;;;5132984;27;20879;-57
2023/12/24 03:23:12;;;;;;;0.50;0.10;;;9.60;1.00;;;;;;5133233;27;20410;-58
2023/12/24 03:25:39;;;;;;;0.40;0.10;;;9.70;1.00;;;;;;5132267;27;20431;-59
2023/12/24 03:28:08;;;;;;;0.30;0.10;;;9.70;99.90;;;;;;5133431;27;20429;-59
2023/12/24 03:30:35;;;;;;;0.30;0.10;;;9.70;99.90;;;;;;5133492;27;20487;-58
2023/12/24 03:33:02;;;;;;;0.30;0.10;;;9.70;1.00;;;;;;5130272;27;20865;-59
2023/12/24 03:35:29;;;;;;;0.30;0.10;;;9.80;1.00;;;;;;5129582;27;20437;-59
2023/12/24 03:37:56;;;;;;;0.30;0.10;;;9.70;99.90;;;;;;5132967;27;20434;-58
2023/12/24 03:40:23;;;;;;;0.30;0.10;;;9.70;99.90;;;;;;5132904;27;20430;-58
2023/12/24 03:42:50;;;;;;;0.30;0.10;;;9.70;99.90;;;;;;5133976;27;20421;-58
2023/12/24 03:45:19;;;;;;;0.40;0.10;;;9.70;1.00;;;;;;5133807;27;20418;-58
2023/12/24 03:47:46;;;;;;;0.30;0.20;;;9.70;99.90;;;;;;5133070;27;20418;-59
2023/12/24 03:50:13;;;;;;;0.38;0.10;;;9.70;99.90;;;;;;5134279;27;20433;-58
2023/12/24 03:52:41;;;;;;;0.40;0.20;;;9.80;1.00;;;;;;5134824;27;20423;-59
2023/12/24 03:55:08;;;;;;;0.30;0.10;;;9.70;99.90;;;;;;5133587;27;20429;-59
2023/12/24 03:57:35;;;;;;;0.30;0.10;;;9.60;1.00;;;;;;5134367;27;20427;-58
2023/12/24 04:00:02;;;;;;;0.30;0.20;;;9.60;99.90;;;;;;5134186;27;20825;-58
2023/12/24 04:02:30;;;;;;;0.30;0.10;;;9.60;1.00;;;;;;5133632;27;20955;-59
2023/12/24 04:04:57;;;;;;;0.30;0.10;;;9.50;1.00;;;;;;5134461;27;20429;-59
2023/12/24 04:07:25;;;;;;;0.40;0.20;;;9.60;1.00;;;;;;5134069;27;20422;-59
2023/12/24 04:09:52;;;;;;;0.40;0.17;;;9.60;1.00;;;;;;5133222;27;20431;-59
2023/12/24 04:12:18;;;;;;;0.40;0.20;;;9.50;1.00;;;;;;5134396;27;20423;-59
2023/12/24 04:14:45;;;;;;;0.40;0.17;;;9.40;32.90;;;;;;5133640;27;20442;-58
2023/12/24 04:17:12;;;;;;;0.40;0.20;;;9.40;99.90;;;;;;5133129;28;20399;-58
2023/12/24 04:19:40;;;;;;;0.40;0.10;;;9.40;99.90;;;;;;5132425;28;20414;-59
2023/12/24 04:22:08;;;;;;;0.40;0.20;;;9.50;1.00;;;;;;5132869;28;20748;-59
2023/12/24 04:24:35;;;;;;;0.40;0.20;;;9.50;1.00;;;;;;5132960;28;20426;-59
2023/12/24 04:27:02;;;;;;;0.38;0.20;;;9.50;1.00;;;;;;5132962;28;20429;-60
2023/12/24 04:29:29;;;;;;;0.30;0.15;;;9.60;1.00;;;;;;5129042;28;20802;-57
2023/12/24 04:31:56;;;;;;;0.40;0.20;;;9.70;99.90;;;;;;5131694;28;20574;-60
2023/12/24 04:34:23;;;;;;;0.40;0.20;;;9.70;99.90;;;;;;5134339;28;20461;-59
2023/12/24 04:36:54;;;;;;;0.50;0.20;;;9.60;99.90;;;;;;5130364;27;20438;-56
2023/12/24 04:39:21;;;;;;;1.20;0.20;;;9.60;99.90;;;;;;5131347;28;20457;-59
2023/12/24 04:41:48;;;;;;;0.30;0.10;;;9.50;1.00;;;;;;5133914;28;20414;-58
2023/12/24 04:44:15;;;;;;;0.60;0.10;;;9.50;1.00;;;;;;5133565;28;20783;-57
2023/12/24 04:46:43;;;;;;;0.40;0.20;;;9.60;1.00;;;;;;5133983;28;20479;-58
2023/12/24 04:49:10;;;;;;;0.32;0.10;;;9.40;99.90;;;;;;5133653;28;20529;-58
2023/12/24 04:51:38;;;;;;;0.90;0.20;;;9.40;1.00;;;;;;5133564;28;20407;-57
2023/12/24 04:54:06;;;;;;;0.40;0.20;;;9.30;96.90;;;;;;5132880;28;20425;-58
2023/12/24 04:56:33;;;;;;;0.30;0.10;;;9.30;1.00;;;;;;5133517;28;20422;-57
2023/12/24 04:59:00;;;;;;;1.30;0.20;;;9.30;1.00;;;;;;5133840;28;20434;-58
2023/12/24 05:01:28;;;;;;;0.30;0.10;;;9.30;1.00;;;;;;5134375;28;20426;-58
2023/12/24 05:03:55;;;;;;;0.30;0.10;;;9.30;12.30;;;;;;5132925;28;20426;-58
2023/12/24 05:06:22;;;;;;;0.30;0.10;;;9.30;99.90;;;;;;5133903;28;20424;-58
2023/12/24 05:08:49;;;;;;;0.30;0.10;;;9.40;99.90;;;;;;5134450;28;20836;-58
2023/12/24 05:11:18;;;;;;;0.40;0.20;;;9.50;99.90;;;;;;5133959;28;20854;-58
2023/12/24 05:13:45;;;;;;;0.50;0.20;;;9.40;1.00;;;;;;5136104;27;20440;-58
2023/12/24 05:16:12;;;;;;;0.30;0.10;;;9.30;1.00;;;;;;5130380;27;20437;-58
2023/12/24 05:18:39;;;;;;;0.30;0.10;;;9.30;1.00;;;;;;5129855;27;20418;-58
2023/12/24 05:21:06;;;;;;;0.30;0.10;;;9.40;99.90;;;;;;5136843;27;20433;-57
2023/12/24 05:23:33;;;;;;;0.30;0.10;;;9.40;1.00;;;;;;5136537;27;20446;-57
2023/12/24 05:26:00;;;;;;;0.30;0.10;;;9.40;99.90;;;;;;5137089;27;20418;-57
2023/12/24 05:28:28;;;;;;;0.30;0.10;;;9.30;1.00;;;;;;5137382;27;20419;-57
2023/12/24 05:30:56;;;;;;;0.40;0.20;;;9.30;1.00;;;;;;5137472;27;20829;-57
2023/12/24 05:33:23;;;;;;;0.30;0.10;;;9.20;99.90;;;;;;5136592;27;20848;-59
2023/12/24 05:35:50;;;;;;;0.40;0.10;;;9.30;1.00;;;;;;5135522;27;20436;-58
2023/12/24 05:38:18;;;;;;;0.30;0.10;;;9.30;1.00;;;;;;5119234;27;20728;-58
2023/12/24 05:40:45;;;;;;;0.30;0.10;;;9.20;1.00;;;;;;5135963;27;20777;-57
2023/12/24 05:43:12;;;;;;;0.38;0.10;;;9.20;1.00;;;;;;5136094;27;20829;-58
2023/12/24 05:45:40;;;;;;;0.30;0.10;;;9.20;1.00;;;;;;5135620;27;20741;-59
2023/12/24 05:48:08;;;;;;;0.30;0.10;;;9.40;1.00;;;;;;5135623;27;20422;-56
2023/12/24 05:50:35;;;;;;;0.30;0.10;;;9.30;1.00;;;;;;5135697;27;20434;-58
2023/12/24 05:53:02;;;;;;;0.30;0.10;;;9.30;1.00;;;;;;5135527;27;20426;-59
2023/12/24 05:55:29;;;;;;;0.30;0.10;;;9.20;1.00;;;;;;5136709;27;20450;-59
2023/12/24 05:57:56;;;;;;;0.40;0.10;;;9.30;1.00;;;;;;5136406;27;20429;-58
2023/12/24 06:00:23;;;;;;;0.40;0.10;;;9.20;1.00;;;;;;5136591;27;20698;-59
2023/12/24 06:02:52;;;;;;;0.30;0.10;;;9.20;1.00;;;;;;5136633;27;20419;-58
2023/12/24 06:05:19;;;;;;;0.30;0.10;;;9.20;1.00;;;;;;5136306;27;20479;-57
2023/12/24 06:07:46;;;;;;;0.40;0.10;;;9.10;99.90;;;;;;5136591;27;20425;-59
2023/12/24 06:10:13;;;;;;;0.60;0.10;;;9.20;93.40;;;;;;5136879;27;20438;-58
2023/12/24 06:12:40;;;;;;;0.30;0.10;;;9.30;99.90;;;;;;5134075;27;20861;-60
2023/12/24 06:15:08;;;;;;;0.30;0.10;;;9.30;1.00;;;;;;5134945;27;20900;-57
2023/12/24 06:17:35;;;;;;;0.30;0.10;;;9.30;51.80;;;;;;5137386;27;20855;-59
2023/12/24 06:20:04;;;;;;;0.30;0.10;;;9.30;55.40;;;;;;5136630;27;20418;-57
2023/12/24 06:22:31;;;;;;;0.60;0.20;;;9.30;99.90;;;;;;5136066;27;20837;-59
2023/12/24 06:24:58;;;;;;;0.30;0.10;;;9.30;99.90;;;;;;5136526;27;20737;-59
2023/12/24 06:27:25;;;;;;;0.30;0.10;;;9.20;99.90;;;;;;5136690;27;20411;-57
2023/12/24 06:29:52;;;;;;;0.30;0.10;;;9.20;99.90;;;;;;5136075;27;20861;-54
2023/12/24 06:32:20;;;;;;;0.30;0.10;;;9.20;99.90;;;;;;5136021;27;20433;-59
2023/12/24 06:34:47;;;;;;;0.40;0.10;;;9.10;99.90;;;;;;5136813;27;20418;-58
2023/12/24 06:37:15;;;;;;;0.90;0.10;;;9.20;99.90;;;;;;5137042;27;20422;-58
2023/12/24 06:39:43;;;;;;;0.30;0.10;;;9.10;99.90;;;;;;5136294;27;20410;-60
2023/12/24 06:42:10;;;;;;;0.30;0.10;;;9.10;1.00;;;;;;5135729;27;20413;-58
2023/12/24 06:44:37;;;;;;;0.30;0.10;;;9.20;1.00;;;;;;5134659;27;20418;-58
2023/12/24 06:47:04;;;;;;;2.20;0.20;;;9.20;99.90;;;;;;5134214;27;20426;-59
2023/12/24 06:49:31;;;;;;;0.40;0.10;;;9.30;99.90;;;;;;5134308;27;20872;-58
2023/12/24 06:51:58;;;;;;;0.90;0.10;;;9.30;99.90;;;;;;5152339;27;20421;-58
2023/12/24 06:54:27;;;;;;;0.30;0.10;;;9.30;99.90;;;;;;5134001;27;20415;-59
2023/12/24 06:56:54;;;;;;;0.40;0.10;;;9.30;99.90;;;;;;5136223;27;20427;-58
2023/12/24 06:59:21;;;;;;;0.30;0.10;;;9.20;1.00;;;;;;5136400;27;20419;-58
2023/12/24 07:01:48;;;;;;;0.30;0.10;;;9.30;1.00;;;;;;5136194;27;20809;-59
2023/12/24 07:04:15;;;;;;;0.40;0.10;;;9.30;99.90;;;;;;5125653;27;20876;-59
2023/12/24 07:06:42;;;;;;;0.30;0.10;;;9.20;1.00;;;;;;5128626;27;20857;-57
2023/12/24 07:09:09;;;;;;;0.40;0.10;;;9.30;1.00;;;;;;5135174;27;20839;-58
2023/12/24 07:11:38;;;;;;;0.80;0.10;;;9.30;99.90;;;;;;5134914;27;20438;-59
2023/12/24 07:14:05;;;;;;;0.38;0.10;;;9.30;99.90;;;;;;5128594;27;20807;-59
2023/12/24 07:16:32;;;;;;;0.30;0.10;;;9.40;99.90;;;;;;5155314;27;20843;-59
2023/12/24 07:19:02;;;;;;;0.80;0.10;;;9.50;99.90;;;;;;5136373;27;20426;-60
2023/12/24 07:21:29;;;;;;;0.30;0.10;;;9.50;99.90;;;;;;5135668;27;20411;-58
2023/12/24 07:23:59;;;;;;;0.73;0.20;;;9.50;99.90;;;;;;5134313;27;20813;-59
2023/12/24 07:26:26;;;;;;;0.30;0.10;;;9.50;99.90;;;;;;5135578;27;20418;-58
2023/12/24 07:28:54;;;;;;;0.30;0.10;;;9.60;99.90;;;;;;5135602;27;20418;-58
2023/12/24 07:31:22;;;;;;;0.30;0.10;;;9.60;99.90;;;;;;5134914;27;21029;-57
2023/12/24 07:33:49;;;;;;;0.40;0.10;;;9.70;99.90;;;;;;5132925;27;20415;-58
2023/12/24 07:36:16;;;;;;;0.30;0.10;;;9.70;99.90;;;;;;5119610;27;20745;-58
2023/12/24 07:38:43;;;;;;;0.30;0.10;;;9.70;99.90;;;;;;5135057;27;20418;-58
2023/12/24 07:41:10;;;;;;;0.30;0.10;;;9.70;99.90;;;;;;5135091;27;20414;-58
2023/12/24 07:43:37;;;;;;;0.30;0.10;;;9.70;99.90;;;;;;5119868;27;20426;-59
2023/12/24 07:46:05;;;;;;;0.50;0.20;;;9.70;99.90;;;;;;5135625;27;20423;-58
2023/12/24 07:48:32;;;;;;;0.30;0.10;;;9.70;99.90;;;;;;5136485;27;20825;-58
2023/12/24 07:50:59;;;;;;;0.30;0.10;;;9.70;99.90;;;;;;5150874;27;20444;-58
2023/12/24 07:53:27;;;;;;;0.30;0.10;;;9.80;99.90;;;;;;5133271;27;20871;-58
2023/12/24 07:55:54;;;;;;;0.30;0.10;;;9.80;99.90;;;;;;5133761;27;20453;-59
2023/12/24 07:58:21;;;;;;;0.30;0.10;;;9.70;1.00;;;;;;5133631;27;20419;-59
2023/12/24 08:00:48;;;;;;;0.30;0.10;;;9.60;1.00;;;;;;5133332;27;20406;-58
2023/12/24 08:03:16;;;;;;;0.30;0.10;;;9.60;1.00;;;;;;5129291;27;20419;-58
2023/12/24 08:05:43;;;;;;;0.30;0.10;;;9.70;1.00;;;;;;5134843;27;20418;-58
2023/12/24 08:08:11;;;;;;;0.30;0.10;;;9.70;1.00;;;;;;5133679;27;20527;-57
2023/12/24 08:10:38;;;;;;;0.30;0.10;;;9.70;1.00;;;;;;5134734;27;20947;-58
2023/12/24 08:13:05;;;;;;;0.30;0.10;;;9.70;1.00;;;;;;5135199;27;20435;-58
2023/12/24 08:15:32;;;;;;;0.30;0.10;;;9.70;1.00;;;;;;5136540;27;20426;-59
2023/12/24 08:17:59;;;;;;;0.30;0.10;;;9.80;1.00;;;;;;5132272;28;20419;-58
2023/12/24 08:20:28;;;;;;;0.30;0.10;;;10.00;99.90;;;;;;5142098;27;20580;-58
2023/12/24 08:22:55;;;;;;;0.40;0.10;;;10.00;99.90;;;;;;5154423;27;20419;-58
2023/12/24 08:25:22;;;;;;;0.30;0.10;;;9.90;99.90;;;;;;5135653;27;20438;-58
2023/12/24 08:27:49;;;;;;;0.30;0.10;;;9.90;99.90;;;;;;5131320;27;20789;-59
2023/12/24 08:30:17;;;;;;;1.50;0.10;;;9.80;99.90;;;;;;5126359;27;20847;-58
2023/12/24 08:32:44;;;;;;;0.30;0.10;;;9.90;99.90;;;;;;5134450;27;20919;-59
2023/12/24 08:35:11;;;;;;;0.30;0.10;;;9.90;1.00;;;;;;5133992;27;20434;-58
2023/12/24 08:37:39;;;;;;;0.30;0.10;;;9.90;1.00;;;;;;5130376;27;20737;-58
2023/12/24 08:40:08;;;;;;;0.30;0.10;;;9.90;99.90;;;;;;5132977;28;20995;-57
2023/12/24 08:42:35;;;;;;;0.30;0.10;;;9.90;99.90;;;;;;5124212;27;20432;-58
2023/12/24 08:45:02;;;;;;;0.40;0.10;;;9.90;1.00;;;;;;5125765;28;20479;-59
2023/12/24 08:47:29;;;;;;;0.30;0.10;;;9.90;99.90;;;;;;5127068;27;20544;-59
2023/12/24 08:49:57;;;;;;;0.30;0.10;;;9.90;99.90;;;;;;5133700;27;20430;-59
2023/12/24 08:52:25;;;;;;;0.30;0.10;;;10.10;1.00;;;;;;5128697;27;20479;-58
2023/12/24 08:54:53;;;;;;;0.30;0.10;;;10.00;99.90;;;;;;5134787;27;20441;-59
2023/12/24 08:57:20;;;;;;;0.30;0.10;;;10.00;99.90;;;;;;5136029;27;20414;-58
2023/12/24 08:59:47;;;;;;;0.30;0.10;;;10.10;99.90;;;;;;5130616;27;20426;-57
2023/12/24 09:02:15;;;;;;;0.30;0.10;;;10.10;99.90;;;;;;5135720;27;20460;-56
2023/12/24 09:04:46;;;;;;;0.30;0.10;;;10.10;99.90;;;;;;5132818;27;20875;-56
2023/12/24 09:07:13;;;;;;;0.30;0.10;;;10.10;99.90;;;;;;5131259;27;20424;-56
2023/12/24 09:09:40;;;;;;;0.60;0.10;;;10.20;99.90;;;;;;5132610;27;20471;-59
2023/12/24 09:12:09;;;;;;;0.30;0.10;;;10.20;99.90;;;;;;5149236;27;20430;-58
2023/12/24 09:14:36;;;;;;;0.30;0.10;;;10.40;1.00;;;;;;5137062;27;20849;-61
2023/12/24 09:17:04;;;;;;;0.30;0.10;;;10.30;1.00;;;;;;5126427;27;20875;-57
2023/12/24 09:19:31;;;;;;;0.30;0.10;;;10.20;1.00;;;;;;5123287;27;20863;-58
2023/12/24 09:21:58;;;;;;;0.30;0.10;;;10.20;1.00;;;;;;5136935;27;20411;-58
2023/12/24 09:24:25;;;;;;;0.30;0.10;;;10.20;1.00;;;;;;5136006;27;20418;-58
2023/12/24 09:26:52;;;;;;;0.40;0.10;;;10.20;1.00;;;;;;5137060;27;20654;-58
2023/12/24 09:29:22;;;;;;;0.30;0.10;;;10.20;1.00;;;;;;5133648;27;20435;-59
2023/12/24 09:31:50;;;;;;;0.30;0.10;;;10.20;1.00;;;;;;5141664;27;20483;-58
2023/12/24 09:34:17;;;;;;;0.30;0.10;;;10.00;1.00;;;;;;5136363;27;20434;-58
2023/12/24 09:36:44;;;;;;;0.30;0.10;;;9.90;1.00;;;;;;5135037;27;20428;-58
2023/12/24 09:39:12;;;;;;;0.30;0.10;;;10.00;1.00;;;;;;5128586;27;20412;-58
2023/12/24 09:41:41;;;;;;;1.00;0.10;;;9.90;1.00;;;;;;5124806;27;20402;-58
2023/12/24 09:44:09;;;;;;;0.30;0.10;;;9.90;1.00;;;;;;5150250;27;20431;-57
2023/12/24 09:46:38;;;;;;;0.30;0.10;;;9.90;1.00;;;;;;5141408;27;20429;-57
2023/12/24 09:49:05;;;;;;;0.30;0.10;;;10.00;1.00;;;;;;5136019;27;20875;-58
2023/12/24 09:51:35;;;;;;;0.30;0.10;;;9.90;1.00;;;;;;5124575;27;20751;-58
2023/12/24 09:54:04;;;;;;;0.30;0.10;;;9.90;1.00;;;;;;5129496;27;20450;-57
2023/12/24 09:56:31;;;;;;;0.30;0.10;;;10.00;3.20;;;;;;5121612;27;20859;-57
2023/12/24 09:58:58;;;;;;;0.30;0.10;;;10.00;1.00;;;;;;5116400;28;20431;-58
2023/12/24 10:01:25;;;;;;;0.30;0.10;;;9.90;1.00;;;;;;5119126;27;20413;-57
2023/12/24 10:03:54;;;;;;;1.00;0.10;;;10.00;8.40;;;;;;5127182;27;20439;-58
2023/12/24 10:06:22;;;;;;;0.30;0.10;;;10.00;1.00;;;;;;5130231;27;20424;-58
2023/12/24 10:08:54;;;;;;;0.30;0.10;;;9.90;5.10;;;;;;5127074;27;20435;-58
2023/12/24 10:11:23;;;;;;;0.30;0.10;;;10.00;1.00;;;;;;5121630;27;20442;-59
2023/12/24 10:13:59;;;;;;;0.40;0.10;;;10.10;1.00;;;;;;5128381;27;20424;-59
2023/12/24 10:16:26;;;;;;;0.30;0.10;;;10.00;1.00;;;;;;5115875;27;20432;-58
2023/12/24 10:18:55;;;;;;;0.30;0.10;;;10.10;1.00;;;;;;5118312;27;20438;-58
2023/12/24 10:21:22;;;;;;;0.30;0.10;;;10.20;1.00;;;;;;5125218;27;20435;-58
2023/12/24 10:23:49;;;;;;;0.40;0.10;;;10.20;1.00;;;;;;5118957;27;20872;-58
2023/12/24 10:26:16;;;;;;;0.30;0.10;;;10.20;1.00;;;;;;5135140;27;20419;-58
2023/12/24 10:28:48;;;;;;;0.30;0.10;;;10.20;1.00;;;;;;5122523;27;20432;-58
2023/12/24 10:31:15;;;;;;;1.10;0.10;;;10.30;1.00;;;;;;5127790;27;20511;-58
2023/12/24 10:33:43;;;;;;;0.30;0.10;;;10.30;1.00;;;;;;5115388;28;20420;-57
2023/12/24 10:36:12;;;;;;;0.30;0.10;;;10.40;1.00;;;;;;5119328;27;20470;-58
2023/12/24 10:38:39;;;;;;;0.30;0.10;;;10.40;1.00;;;;;;5129526;27;20437;-58
2023/12/24 10:41:07;;;;;;;0.30;0.10;;;10.40;1.00;;;;;;5127389;27;20432;-58
2023/12/24 10:43:34;;;;;;;0.30;0.10;;;10.40;1.00;;;;;;5133803;27;20678;-58
2023/12/24 10:46:01;;;;;;;0.40;0.10;;;10.40;1.00;;;;;;5135896;27;20550;-58
2023/12/24 10:48:28;;;;;;;0.30;0.10;;;10.50;1.00;;;;;;5135391;27;20954;-58
2023/12/24 10:50:55;;;;;;;0.30;0.10;;;10.40;1.00;;;;;;5128415;27;20424;-58
2023/12/24 10:53:24;;;;;;;0.30;0.10;;;10.40;1.00;;;;;;5115551;28;20419;-58
2023/12/24 10:56:00;;;;;;;0.30;0.10;;;10.50;1.00;;;;;;5113283;28;20481;-58
2023/12/24 10:58:37;;;;;;;0.30;0.10;;;10.50;1.00;;;;;;5120716;27;20419;-58
2023/12/24 11:01:07;;;;;;;0.30;0.10;;;10.60;1.00;;;;;;5134510;27;20589;-58
2023/12/24 11:03:47;;;;;;;0.30;0.10;;;10.70;1.00;;;;;;5123372;27;20426;-58
2023/12/24 11:06:46;;;;;;;0.30;0.10;;;10.80;1.00;;;;;;5127355;27;20509;-58
2023/12/24 11:09:45;;;;;;;0.30;0.10;;;10.80;1.00;;;;;;5130077;27;20964;-59
2023/12/24 11:12:26;;;;;;;0.30;0.10;;;10.80;1.00;;;;;;5132317;27;20426;-59
2023/12/24 11:14:53;;;;;;;0.30;0.10;;;10.90;1.00;;;;;;5119048;27;20414;-59
2023/12/24 11:17:50;;;;;;;0.30;0.10;;;10.90;99.90;;;;;;5118884;27;20696;-59
2023/12/24 11:20:40;;;;;;;0.30;0.10;;;11.00;1.00;;;;;;5127057;27;20417;-59
2023/12/24 11:23:14;;;;;;;0.30;0.10;;;10.90;1.00;;;;;;5117920;27;20418;-59
2023/12/24 11:25:44;;;;;;;0.30;0.10;;;10.90;1.00;;;;;;5133713;27;20442;-59
2023/12/24 11:28:12;;;;;;;0.30;0.10;;;10.90;1.00;;;;;;5130342;27;20837;-59
2023/12/24 11:31:07;;;;;;;0.30;0.10;;;11.00;1.00;;;;;;5127749;27;20443;-59
2023/12/24 11:33:50;;;;;;;0.30;0.10;;;11.00;99.90;;;;;;5086563;27;20741;-59
2023/12/24 11:36:19;;;;;;;0.30;0.10;;;11.10;1.00;;;;;;5130185;27;20447;-59
2023/12/24 11:38:47;;;;;;;0.30;0.10;;;11.20;99.90;;;;;;5125490;27;20892;-59
2023/12/24 11:41:17;;;;;;;0.30;0.10;;;11.20;99.90;;;;;;5133335;27;20501;-59
2023/12/24 11:43:53;;;;;;;0.30;0.10;;;11.20;99.90;;;;;;5129911;27;20423;-60
2023/12/24 11:46:20;;;;;;;0.30;0.10;;;11.30;99.90;;;;;;5130431;27;20450;-59
2023/12/24 11:48:48;;;;;;;0.30;0.10;;;11.20;99.90;;;;;;5131747;27;20420;-59
2023/12/24 11:51:15;;;;;;;0.30;0.10;;;11.20;99.90;;;;;;5130705;27;20418;-59
2023/12/24 11:53:44;;;;;;;0.30;0.10;;;11.20;99.90;;;;;;5132102;27;20422;-59
2023/12/24 11:56:14;;;;;;;0.30;0.10;;;11.20;99.90;;;;;;5133934;27;20453;-59
2023/12/24 11:58:56;;;;;;;0.30;0.10;;;11.40;99.90;;;;;;5132403;27;20428;-58
2023/12/24 12:01:25;;;;;;;0.30;0.10;;;11.30;99.90;;;;;;5132713;27;20430;-59
2023/12/24 12:03:57;;;;;;;0.30;0.10;;;11.30;56.10;;;;;;5132151;27;20438;-59
2023/12/24 12:06:24;;;;;;;0.30;0.10;;;11.30;99.90;;;;;;5113942;27;20797;-60
2023/12/24 12:08:51;;;;;;;0.30;0.10;;;11.30;99.90;;;;;;5132309;27;20526;-60
2023/12/24 12:11:19;;;;;;;0.30;0.10;;;11.40;1.00;;;;;;5130447;27;20431;-59
2023/12/24 12:13:47;;;;;;;0.40;0.10;;;11.40;91.60;;;;;;5131882;27;20856;-59
2023/12/24 12:16:15;;;;;;;0.30;0.10;;;11.50;1.00;;;;;;5132245;27;20434;-59
2023/12/24 12:18:42;;;;;;;0.30;0.10;;;11.50;1.00;;;;;;5134042;27;21037;-59
2023/12/24 12:21:10;;;;;;;0.30;0.10;;;11.70;1.00;;;;;;5131413;28;20470;-60
2023/12/24 12:23:38;;;;;;;0.30;0.10;;;11.50;99.90;;;;;;5138116;27;20441;-59
2023/12/24 12:26:06;;;;;;;0.30;0.10;;;11.50;1.00;;;;;;5138627;27;20442;-59
2023/12/24 12:28:33;;;;;;;0.30;0.10;;;11.50;1.00;;;;;;5139598;27;20414;-60
2023/12/24 12:31:02;;;;;;;0.30;0.10;;;11.50;99.90;;;;;;5140725;27;20421;-58
2023/12/24 12:33:29;;;;;;;0.30;0.10;;;11.50;1.00;;;;;;5140891;27;20921;-59
2023/12/24 12:35:56;;;;;;;0.40;0.10;;;11.60;99.90;;;;;;5140607;27;20414;-59
2023/12/24 12:38:23;;;;;;;0.40;0.10;;;11.60;99.90;;;;;;5141018;27;20428;-59
2023/12/24 12:40:51;;;;;;;0.30;0.10;;;11.50;1.00;;;;;;5140396;27;20417;-59
2023/12/24 12:43:19;;;;;;;0.40;0.10;;;11.60;1.00;;;;;;5139040;27;20414;-59
2023/12/24 12:45:46;;;;;;;0.90;0.10;;;11.50;99.90;;;;;;5140477;27;20426;-59
2023/12/24 12:48:15;;;;;;;0.30;0.10;;;11.50;1.00;;;;;;5139555;27;20418;-59
2023/12/24 12:50:42;;;;;;;0.30;0.10;;;11.50;99.90;;;;;;5140135;27;20957;-59
2023/12/24 12:53:09;;;;;;;0.30;0.10;;;11.40;1.00;;;;;;5140157;27;20843;-59
2023/12/24 12:55:36;;;;;;;0.40;0.10;;;11.50;1.00;;;;;;5141017;27;20417;-59
2023/12/24 12:58:12;;;;;;;0.40;0.10;;;11.50;1.00;;;;;;5138636;27;20414;-59
2023/12/24 13:00:40;;;;;;;0.30;0.10;;;11.50;1.00;;;;;;5125271;27;20773;-59
2023/12/24 13:03:08;;;;;;;0.30;0.10;;;11.50;1.00;;;;;;5139211;27;20837;-60
2023/12/24 13:05:36;;;;;;;0.30;0.10;;;11.60;99.90;;;;;;5128764;27;20808;-59